createdAt,value
2022-12-18T00:00:15.826Z,81.90
2022-12-18T00:02:46.148Z,82.63
2022-12-18T00:05:17.042Z,78.03
2022-12-18T00:07:45.826Z,86.75
2022-12-18T00:10:15.364Z,88.28
2022-12-18T00:12:47.091Z,82.22
2022-12-18T00:15:16.021Z,82.43
2022-12-18T00:17:44.819Z,87.53
2022-12-18T00:20:15.015Z,105.30
2022-12-18T00:22:43.672Z,94.22
2022-12-18T00:25:12.226Z,88.07
2022-12-18T00:27:41.041Z,99.03
2022-12-18T00:30:10.857Z,90.18
2022-12-18T00:32:40.261Z,97.95
2022-12-18T00:35:09.621Z,91.70
2022-12-18T00:37:39.707Z,83.60
2022-12-18T00:40:09.636Z,87.72
2022-12-18T00:42:56.409Z,90.40
2022-12-18T00:45:27.251Z,90.13
2022-12-18T00:47:56.505Z,83.00
2022-12-18T00:50:26.191Z,91.75
2022-12-18T00:52:56.368Z,78.15
2022-12-18T00:55:25.205Z,82.90
2022-12-18T00:57:54.104Z,78.15
2022-12-18T01:00:23.122Z,84.03
2022-12-18T01:02:51.886Z,85.45
2022-12-18T01:05:20.770Z,84.05
2022-12-18T01:07:49.421Z,85.40
2022-12-18T01:10:19.943Z,83.18
2022-12-18T01:12:48.568Z,80.93
2022-12-18T01:15:17.818Z,90.22
2022-12-18T01:17:46.637Z,92.72
2022-12-18T01:20:15.946Z,89.85
2022-12-18T01:22:44.720Z,95.70
2022-12-18T01:25:13.534Z,88.72
2022-12-18T01:27:43.687Z,92.13
2022-12-18T01:30:13.182Z,90.35
2022-12-18T01:32:41.765Z,90.82
2022-12-18T01:35:11.072Z,100.47
2022-12-18T01:37:39.744Z,93.18
2022-12-18T01:40:09.781Z,104.88
2022-12-18T01:42:38.554Z,95.60
2022-12-18T01:45:25.898Z,91.20
2022-12-18T01:47:56.305Z,92.38
2022-12-18T01:50:27.151Z,93.03
2022-12-18T01:52:57.600Z,87.38
2022-12-18T01:55:28.707Z,99.60
2022-12-18T01:57:59.734Z,99.35
2022-12-18T02:00:30.472Z,96.53
2022-12-18T02:02:59.226Z,105.95
2022-12-18T02:05:37.206Z,90.03
2022-12-18T02:08:12.022Z,89.45
2022-12-18T02:10:48.086Z,86.82
2022-12-18T02:13:22.937Z,89.97
2022-12-18T02:18:28.111Z,85.00
2022-12-18T02:21:00.377Z,85.32
2022-12-18T02:23:46.657Z,92.50
2022-12-18T02:26:21.094Z,91.18
2022-12-18T02:28:56.929Z,87.63
2022-12-18T02:31:28.125Z,91.47
2022-12-18T02:34:03.841Z,87.25
2022-12-18T02:36:38.989Z,80.28
2022-12-18T02:39:09.521Z,79.57
2022-12-18T02:41:42.641Z,87.40
2022-12-18T02:44:13.450Z,80.97
2022-12-18T02:46:44.695Z,81.82
2022-12-18T02:49:26.643Z,58.78
2022-12-18T02:52:02.735Z,81.35
2022-12-18T02:54:46.116Z,70.82
2022-12-18T02:57:22.323Z,76.57
2022-12-18T02:59:58.271Z,72.68
2022-12-18T03:02:32.644Z,74.30
2022-12-18T03:05:03.639Z,74.88
2022-12-18T03:07:39.992Z,65.57
2022-12-18T03:10:15.535Z,67.40
2022-12-18T03:12:49.957Z,66.13
2022-12-18T03:15:21.049Z,65.55
2022-12-18T03:17:58.974Z,68.10
2022-12-18T03:20:31.892Z,68.63
2022-12-18T03:23:05.065Z,58.55
2022-12-18T03:25:34.034Z,62.28
2022-12-18T03:28:06.251Z,67.65
2022-12-18T03:30:37.055Z,62.30
2022-12-18T03:33:11.263Z,59.97
2022-12-18T03:35:45.462Z,56.25
2022-12-18T03:38:15.102Z,61.55
2022-12-18T03:40:53.233Z,60.85
2022-12-18T03:43:32.957Z,59.88
2022-12-18T03:46:09.116Z,62.70
2022-12-18T03:48:44.170Z,57.45
2022-12-18T03:51:20.389Z,55.42
2022-12-18T03:53:55.773Z,58.25
2022-12-18T03:56:30.783Z,53.08
2022-12-18T03:59:04.155Z,58.05
2022-12-18T04:01:36.360Z,53.38
2022-12-18T04:04:06.141Z,63.65
2022-12-18T04:06:38.156Z,55.38
2022-12-18T04:09:07.490Z,52.45
2022-12-18T04:11:40.371Z,59.95
2022-12-18T04:14:14.401Z,66.43
2022-12-18T04:16:46.550Z,64.25
2022-12-18T04:19:18.548Z,62.00
2022-12-18T04:21:49.895Z,58.22
2022-12-18T04:24:19.869Z,58.47
2022-12-18T04:26:59.466Z,59.40
2022-12-18T04:29:35.374Z,52.85
2022-12-18T04:32:03.914Z,51.70
2022-12-18T04:34:34.349Z,55.97
2022-12-18T04:37:02.996Z,59.90
2022-12-18T04:39:32.585Z,65.10
2022-12-18T04:42:07.014Z,63.00
2022-12-18T04:44:38.236Z,65.20
2022-12-18T04:47:06.849Z,63.90
2022-12-18T04:49:35.497Z,63.92
2022-12-18T04:52:04.240Z,67.65
2022-12-18T04:54:35.642Z,68.68
2022-12-18T04:57:04.380Z,64.90
2022-12-18T04:59:32.981Z,57.97
2022-12-18T05:02:02.953Z,62.38
2022-12-18T05:04:31.594Z,61.50
2022-12-18T05:07:00.203Z,64.22
2022-12-18T05:09:28.817Z,56.35
2022-12-18T05:11:57.520Z,58.92
2022-12-18T05:14:26.181Z,70.53
2022-12-18T05:16:59.233Z,64.32
2022-12-18T05:19:30.833Z,57.70
2022-12-18T05:21:59.446Z,53.08
2022-12-18T05:24:28.290Z,61.03
2022-12-18T05:26:56.838Z,66.57
2022-12-18T05:29:25.641Z,60.88
2022-12-18T05:31:54.340Z,55.92
2022-12-18T05:34:23.246Z,59.60
2022-12-18T05:36:53.165Z,64.57
2022-12-18T05:39:21.774Z,60.50
2022-12-18T05:41:50.409Z,57.00
2022-12-18T05:44:19.126Z,61.92
2022-12-18T05:46:47.718Z,65.40
2022-12-18T05:49:16.437Z,54.45
2022-12-18T05:51:45.044Z,61.28
2022-12-18T05:54:15.011Z,60.67
2022-12-18T05:56:48.498Z,56.22
2022-12-18T05:59:17.486Z,56.97
2022-12-18T06:01:46.187Z,58.40
2022-12-18T06:04:14.946Z,56.97
2022-12-18T06:06:43.759Z,54.10
2022-12-18T06:09:13.859Z,59.30
2022-12-18T06:11:42.425Z,74.57
2022-12-18T06:14:12.684Z,55.10
2022-12-18T06:16:41.281Z,53.78
2022-12-18T06:19:10.039Z,53.58
2022-12-18T06:21:38.689Z,56.60
2022-12-18T06:24:08.141Z,57.25
2022-12-18T06:26:39.854Z,57.03
2022-12-18T06:29:08.552Z,59.03
2022-12-18T06:31:37.281Z,55.80
2022-12-18T06:34:06.670Z,58.45
2022-12-18T06:36:35.586Z,57.75
2022-12-18T06:39:04.586Z,57.72
2022-12-18T06:41:33.183Z,57.83
2022-12-18T06:44:03.302Z,56.47
2022-12-18T06:46:33.210Z,54.25
2022-12-18T06:49:02.024Z,63.78
2022-12-18T06:51:30.888Z,57.25
2022-12-18T06:53:59.536Z,59.40
2022-12-18T06:56:28.907Z,71.38
2022-12-18T06:58:57.632Z,54.38
2022-12-18T07:01:27.675Z,57.13
2022-12-18T07:03:57.385Z,56.10
2022-12-18T07:06:27.731Z,53.40
2022-12-18T07:08:57.004Z,57.92
2022-12-18T07:11:25.783Z,55.78
2022-12-18T07:13:55.368Z,60.38
2022-12-18T07:16:34.379Z,54.25
2022-12-18T07:19:03.074Z,57.97
2022-12-18T07:21:31.714Z,80.18
2022-12-18T07:24:00.460Z,71.50
2022-12-18T07:26:29.026Z,62.03
2022-12-18T07:28:58.646Z,56.78
2022-12-18T07:31:28.219Z,53.85
2022-12-18T07:33:58.365Z,64.28
2022-12-18T07:36:27.122Z,47.72
2022-12-18T07:38:55.883Z,56.20
2022-12-18T07:41:25.084Z,56.67
2022-12-18T07:43:53.742Z,50.65
2022-12-18T07:46:22.428Z,51.60
2022-12-18T07:48:51.213Z,58.88
2022-12-18T07:51:21.185Z,58.17
2022-12-18T07:53:52.074Z,61.30
2022-12-18T07:56:27.599Z,63.92
2022-12-18T07:58:57.563Z,49.88
2022-12-18T08:01:26.498Z,58.55
2022-12-18T08:03:55.308Z,60.30
2022-12-18T08:06:25.369Z,61.47
2022-12-18T08:08:54.645Z,58.45
2022-12-18T08:11:24.184Z,65.07
2022-12-18T08:13:52.880Z,58.28
2022-12-18T08:16:22.040Z,60.42
2022-12-18T08:18:50.984Z,64.88
2022-12-18T08:21:23.820Z,64.90
2022-12-18T08:23:55.081Z,62.38
2022-12-18T08:26:24.299Z,65.82
2022-12-18T08:28:53.624Z,59.40
2022-12-18T08:31:22.644Z,65.05
2022-12-18T08:33:54.239Z,66.10
2022-12-18T08:36:24.003Z,63.33
2022-12-18T08:38:55.091Z,66.07
2022-12-18T08:41:24.346Z,59.53
2022-12-18T08:44:10.764Z,63.75
2022-12-18T08:46:40.808Z,65.20
2022-12-18T08:49:11.011Z,67.65
2022-12-18T08:51:40.088Z,58.78
2022-12-18T08:54:11.367Z,63.08
2022-12-18T08:56:40.060Z,70.68
2022-12-18T08:59:08.667Z,60.22
2022-12-18T09:01:37.617Z,75.22
2022-12-18T09:04:06.403Z,66.68
2022-12-18T09:06:36.788Z,65.30
2022-12-18T09:09:09.102Z,56.95
2022-12-18T09:11:37.726Z,60.53
2022-12-18T09:14:06.365Z,66.45
2022-12-18T09:16:36.060Z,60.95
2022-12-18T09:19:06.385Z,62.38
2022-12-18T09:21:37.579Z,68.72
2022-12-18T09:24:08.578Z,69.88
2022-12-18T09:26:39.251Z,74.03
2022-12-18T09:29:09.231Z,74.60
2022-12-18T09:31:38.516Z,68.30
2022-12-18T09:34:07.080Z,84.53
2022-12-18T09:36:35.854Z,77.05
2022-12-18T09:39:08.124Z,71.25
2022-12-18T09:41:50.984Z,69.72
2022-12-18T09:44:26.986Z,70.10
2022-12-18T09:49:28.099Z,65.82
2022-12-18T09:51:59.340Z,74.50
2022-12-18T09:54:32.049Z,72.38
2022-12-18T09:57:02.053Z,68.72
2022-12-18T09:59:36.595Z,67.15
2022-12-18T10:02:16.610Z,73.00
2022-12-18T10:04:45.712Z,104.25
2022-12-18T10:07:20.730Z,95.97
2022-12-18T10:12:25.909Z,71.50
2022-12-18T10:14:58.134Z,71.18
2022-12-18T10:17:30.425Z,65.47
2022-12-18T10:20:01.805Z,72.03
2022-12-18T10:22:50.915Z,74.75
2022-12-18T10:25:24.375Z,60.75
2022-12-18T10:27:58.469Z,73.35
2022-12-18T10:30:28.136Z,63.63
2022-12-18T10:33:00.729Z,69.82
2022-12-18T10:35:29.824Z,69.30
2022-12-18T10:38:07.667Z,69.15
2022-12-18T10:40:51.509Z,73.55
2022-12-18T10:43:26.150Z,67.78
2022-12-18T10:46:15.782Z,70.45
2022-12-18T10:48:55.568Z,74.93
2022-12-18T10:51:27.119Z,66.25
2022-12-18T10:54:00.089Z,65.57
2022-12-18T10:56:31.481Z,67.07
2022-12-18T10:59:03.107Z,58.08
2022-12-18T11:01:51.726Z,59.67
2022-12-18T11:04:23.289Z,63.03
2022-12-18T11:06:57.528Z,61.13
2022-12-18T11:09:27.341Z,67.35
2022-12-18T11:11:57.025Z,57.22
2022-12-18T11:14:28.958Z,61.40
2022-12-18T11:19:48.379Z,51.28
2022-12-18T11:22:22.924Z,58.33
2022-12-18T11:25:30.233Z,61.60
2022-12-18T11:27:51.742Z,42.33
2022-12-18T11:30:27.293Z,48.00
2022-12-18T11:32:58.536Z,53.03
2022-12-18T11:35:35.204Z,52.55
2022-12-18T11:38:09.317Z,57.17
2022-12-18T11:40:41.240Z,41.70
2022-12-18T11:43:15.434Z,54.35
2022-12-18T11:45:51.882Z,50.80
2022-12-18T11:48:23.550Z,55.33
2022-12-18T11:50:53.427Z,51.40
2022-12-18T11:53:22.971Z,51.17
2022-12-18T11:56:04.534Z,61.13
2022-12-18T11:58:42.880Z,59.65
2022-12-18T12:01:21.250Z,51.53
2022-12-18T12:04:10.747Z,52.53
2022-12-18T12:06:46.910Z,51.08
2022-12-18T12:09:19.809Z,51.50
2022-12-18T12:11:58.639Z,54.63
2022-12-18T12:14:49.110Z,64.30
2022-12-18T12:17:24.915Z,57.22
2022-12-18T12:20:00.149Z,55.92
2022-12-18T12:22:34.909Z,62.45
2022-12-18T12:25:15.554Z,69.15
2022-12-18T12:27:52.550Z,54.83
2022-12-18T12:30:23.688Z,55.33
2022-12-18T12:33:03.150Z,49.08
2022-12-18T12:35:45.141Z,53.13
2022-12-18T12:38:16.127Z,50.22
2022-12-18T12:40:53.780Z,51.80
2022-12-18T12:43:29.550Z,49.72
2022-12-18T12:46:01.008Z,99.10
2022-12-18T12:48:36.843Z,76.45
2022-12-18T12:51:09.773Z,57.20
2022-12-18T12:53:40.819Z,58.17
2022-12-18T12:56:13.369Z,52.95
2022-12-18T12:58:49.178Z,57.00
2022-12-18T13:01:26.658Z,57.05
2022-12-18T13:04:03.381Z,52.33
2022-12-18T13:06:44.378Z,51.83
2022-12-18T13:09:13.639Z,65.65
2022-12-18T13:12:01.233Z,50.63
2022-12-18T13:14:35.088Z,52.55
2022-12-18T13:17:31.115Z,58.65
2022-12-18T13:20:10.215Z,53.63
2022-12-18T13:22:40.547Z,55.47
2022-12-18T13:25:34.032Z,55.63
2022-12-18T13:28:14.580Z,51.03
2022-12-18T13:30:49.405Z,53.53
2022-12-18T13:34:16.567Z,49.10
2022-12-18T13:36:36.256Z,50.53
2022-12-18T13:39:30.234Z,48.45
2022-12-18T13:42:59.899Z,49.97
2022-12-18T13:45:47.345Z,51.45
2022-12-18T13:48:22.239Z,51.33
2022-12-18T13:50:57.284Z,45.30
2022-12-18T13:53:30.137Z,50.35
2022-12-18T13:55:58.922Z,49.63
2022-12-18T13:58:27.601Z,52.33
2022-12-18T14:00:56.353Z,54.55
2022-12-18T14:03:28.200Z,50.28
2022-12-18T14:06:08.230Z,51.83
2022-12-18T14:08:43.386Z,47.90
2022-12-18T14:11:21.704Z,50.70
2022-12-18T14:13:51.145Z,51.47
2022-12-18T14:16:20.828Z,53.25
2022-12-18T14:18:55.497Z,50.50
2022-12-18T14:21:29.356Z,53.40
2022-12-18T14:24:16.743Z,51.88
2022-12-18T14:26:48.664Z,51.58
2022-12-18T14:29:25.398Z,74.18
2022-12-18T14:32:17.439Z,50.28
2022-12-18T14:34:47.769Z,48.40
2022-12-18T14:37:18.687Z,52.65
2022-12-18T14:40:08.641Z,50.58
2022-12-18T14:42:37.518Z,56.90
2022-12-18T14:45:41.831Z,53.75
2022-12-18T14:48:14.570Z,59.28
2022-12-18T14:50:45.550Z,64.45
2022-12-18T14:53:24.172Z,61.97
2022-12-18T14:55:55.296Z,62.10
2022-12-18T14:58:24.960Z,54.92
2022-12-18T15:00:55.800Z,52.25
2022-12-18T15:03:25.353Z,55.17
2022-12-18T15:05:54.831Z,58.72
2022-12-18T15:08:38.844Z,58.10
2022-12-18T15:11:31.138Z,58.13
2022-12-18T15:14:01.725Z,71.38
2022-12-18T15:16:30.912Z,60.35
2022-12-18T15:18:59.971Z,60.45
2022-12-18T15:21:31.629Z,60.25
2022-12-18T15:24:00.577Z,62.45
2022-12-18T15:26:39.855Z,77.05
2022-12-18T15:29:17.715Z,66.53
2022-12-18T15:31:46.708Z,61.25
2022-12-18T15:34:21.467Z,63.47
2022-12-18T15:36:50.400Z,66.10
2022-12-18T15:39:19.226Z,72.38
2022-12-18T15:42:03.370Z,71.68
2022-12-18T15:44:34.613Z,75.90
2022-12-18T15:47:03.680Z,66.82
2022-12-18T15:49:32.249Z,69.22
2022-12-18T15:52:01.556Z,71.18
2022-12-18T15:54:48.027Z,62.60
2022-12-18T15:57:27.510Z,64.78
2022-12-18T15:59:59.221Z,69.43
2022-12-18T16:02:29.382Z,72.60
2022-12-18T16:04:59.084Z,68.63
2022-12-18T16:07:30.567Z,82.72
2022-12-18T16:10:00.405Z,75.25
2022-12-18T16:12:32.846Z,70.95
2022-12-18T16:15:02.632Z,69.00
2022-12-18T16:17:31.299Z,64.20
2022-12-18T16:20:00.421Z,66.35
2022-12-18T16:22:31.113Z,65.30
2022-12-18T16:25:00.380Z,69.18
2022-12-18T16:27:29.402Z,68.90
2022-12-18T16:29:59.545Z,65.43
2022-12-18T16:32:28.220Z,75.10
2022-12-18T16:35:02.100Z,83.05
2022-12-18T16:37:30.806Z,73.47
2022-12-18T16:39:59.528Z,78.78
2022-12-18T16:42:28.345Z,80.65
2022-12-18T16:44:58.466Z,66.90
2022-12-18T16:47:27.145Z,69.45
2022-12-18T16:49:55.991Z,72.57
2022-12-18T16:52:24.832Z,81.82
2022-12-18T16:54:53.540Z,70.28
2022-12-18T16:57:25.205Z,72.32
2022-12-18T16:59:56.081Z,72.15
2022-12-18T17:02:29.265Z,66.07
2022-12-18T17:04:59.019Z,70.43
2022-12-18T17:07:29.057Z,73.55
2022-12-18T17:09:57.831Z,66.97
2022-12-18T17:12:26.940Z,75.13
2022-12-18T17:14:55.727Z,70.00
2022-12-18T17:17:24.516Z,69.40
2022-12-18T17:19:54.739Z,68.18
2022-12-18T17:22:24.125Z,61.60
2022-12-18T17:24:52.819Z,78.95
2022-12-18T17:27:21.647Z,73.28
2022-12-18T17:29:50.476Z,76.28
2022-12-18T17:32:19.423Z,70.95
2022-12-18T17:34:48.347Z,67.28
2022-12-18T17:37:18.452Z,77.22
2022-12-18T17:39:47.306Z,68.82
2022-12-18T17:42:16.041Z,58.13
2022-12-18T17:44:45.138Z,59.53
2022-12-18T17:47:14.708Z,66.72
2022-12-18T17:49:43.505Z,100.72
2022-12-18T17:52:12.668Z,69.68
2022-12-18T17:54:44.138Z,61.67
2022-12-18T17:57:12.827Z,61.97
2022-12-18T17:59:41.485Z,56.45
2022-12-18T18:02:12.077Z,61.92
2022-12-18T18:04:41.011Z,58.95
2022-12-18T18:07:09.932Z,60.30
2022-12-18T18:09:38.862Z,67.10
2022-12-18T18:12:26.735Z,60.45
2022-12-18T18:14:55.665Z,56.28
2022-12-18T18:17:24.396Z,54.47
2022-12-18T18:19:53.129Z,51.58
2022-12-18T18:22:21.950Z,53.35
2022-12-18T18:24:53.546Z,46.30
2022-12-18T18:27:23.703Z,50.90
2022-12-18T18:29:52.784Z,49.08
2022-12-18T18:32:21.594Z,48.88
2022-12-18T18:34:50.622Z,47.65
2022-12-18T18:37:19.918Z,72.50
2022-12-18T18:39:48.947Z,49.63
2022-12-18T18:42:17.668Z,53.33
2022-12-18T18:44:49.142Z,45.25
2022-12-18T18:47:18.184Z,47.38
2022-12-18T18:49:46.961Z,44.78
2022-12-18T18:52:15.741Z,53.08
2022-12-18T18:55:10.723Z,49.22
2022-12-18T18:57:33.803Z,42.03
2022-12-18T19:00:04.151Z,45.40
2022-12-18T19:02:33.149Z,46.08
2022-12-18T19:05:02.069Z,49.17
2022-12-18T19:07:31.444Z,49.67
2022-12-18T19:10:04.476Z,44.35
2022-12-18T19:12:52.903Z,49.50
2022-12-18T19:15:25.081Z,45.60
2022-12-18T19:17:54.879Z,48.03
2022-12-18T19:20:23.804Z,47.45
2022-12-18T19:22:55.927Z,47.83
2022-12-18T19:25:39.993Z,49.88
2022-12-18T19:28:15.983Z,50.40
2022-12-18T19:30:58.744Z,55.00
2022-12-18T19:33:44.820Z,48.13
2022-12-18T19:36:16.408Z,46.17
2022-12-18T19:38:45.726Z,47.80
2022-12-18T19:41:15.540Z,47.13
2022-12-18T19:43:45.417Z,50.15
2022-12-18T19:46:16.879Z,47.20
2022-12-18T19:48:46.246Z,49.78
2022-12-18T19:51:17.675Z,45.38
2022-12-18T19:53:46.941Z,43.95
2022-12-18T19:56:18.124Z,44.17
2022-12-18T19:58:47.788Z,45.40
2022-12-18T20:01:19.970Z,40.53
2022-12-18T20:03:52.585Z,47.67
2022-12-18T20:06:28.016Z,42.22
2022-12-18T20:09:00.308Z,42.95
2022-12-18T20:11:30.147Z,46.50
2022-12-18T20:13:59.083Z,46.30
2022-12-18T20:16:32.196Z,44.85
2022-12-18T20:19:01.205Z,43.53
2022-12-18T20:21:30.561Z,41.97
2022-12-18T20:24:00.053Z,45.15
2022-12-18T20:26:28.999Z,46.85
2022-12-18T20:28:58.322Z,47.08
2022-12-18T20:31:27.114Z,44.80
2022-12-18T20:34:00.378Z,42.80
2022-12-18T20:36:32.931Z,46.55
2022-12-18T20:39:03.953Z,44.97
2022-12-18T20:41:38.001Z,46.40
2022-12-18T20:44:21.686Z,44.58
2022-12-18T20:46:53.308Z,48.07
2022-12-18T20:49:23.824Z,49.35
2022-12-18T20:51:53.381Z,49.83
2022-12-18T20:54:22.453Z,45.58
2022-12-18T20:56:51.467Z,42.95
2022-12-18T20:59:20.246Z,51.30
2022-12-18T21:01:49.732Z,43.15
2022-12-18T21:04:19.367Z,50.35
2022-12-18T21:06:57.784Z,50.67
2022-12-18T21:09:37.436Z,47.40
2022-12-18T21:12:27.450Z,48.35
2022-12-18T21:14:56.008Z,50.70
2022-12-18T21:17:24.779Z,48.03
2022-12-18T21:19:55.705Z,51.35
2022-12-18T21:22:26.062Z,49.85
2022-12-18T21:24:54.971Z,52.88
2022-12-18T21:27:23.574Z,73.38
2022-12-18T21:29:52.668Z,47.65
2022-12-18T21:32:21.389Z,57.92
2022-12-18T21:34:53.124Z,49.28
2022-12-18T21:37:21.872Z,62.90
2022-12-18T21:39:51.895Z,55.75
2022-12-18T21:42:38.259Z,53.97
2022-12-18T21:45:07.557Z,57.08
2022-12-18T21:47:36.293Z,72.88
2022-12-18T21:50:05.528Z,66.45
2022-12-18T21:52:34.211Z,59.83
2022-12-18T21:55:09.594Z,56.58
2022-12-18T21:57:39.604Z,52.92
2022-12-18T22:00:18.169Z,57.28
2022-12-18T22:02:47.932Z,52.10
2022-12-18T22:05:17.014Z,51.53
2022-12-18T22:07:45.750Z,58.35
2022-12-18T22:10:15.968Z,53.45
2022-12-18T22:12:45.838Z,55.38
2022-12-18T22:15:21.074Z,53.22
2022-12-18T22:17:51.151Z,52.63
2022-12-18T22:20:23.114Z,53.10
2022-12-18T22:22:52.587Z,53.10
2022-12-18T22:25:22.533Z,51.45
2022-12-18T22:28:05.087Z,47.83
2022-12-18T22:30:33.884Z,53.45
2022-12-18T22:33:02.578Z,51.38
2022-12-18T22:35:31.336Z,47.08
2022-12-18T22:38:00.261Z,51.50
2022-12-18T22:40:30.560Z,46.65
2022-12-18T22:42:59.471Z,50.58
2022-12-18T22:45:28.686Z,50.28
2022-12-18T22:47:57.688Z,48.45
2022-12-18T22:50:26.519Z,42.72
2022-12-18T22:52:55.123Z,43.60
2022-12-18T22:55:23.817Z,44.80
2022-12-18T22:57:53.826Z,46.33
2022-12-18T23:00:24.612Z,42.42
2022-12-18T23:02:59.774Z,44.15
2022-12-18T23:05:30.372Z,45.67
2022-12-18T23:07:59.437Z,46.80
2022-12-18T23:10:28.363Z,46.80
2022-12-18T23:12:58.425Z,50.45
2022-12-18T23:15:28.241Z,60.92
2022-12-18T23:17:58.605Z,55.00
2022-12-18T23:20:27.741Z,50.20
2022-12-18T23:22:56.698Z,46.08
2022-12-18T23:25:25.421Z,45.33
2022-12-18T23:27:54.327Z,48.97
2022-12-18T23:30:24.671Z,45.67
2022-12-18T23:32:53.474Z,48.33
2022-12-18T23:35:22.560Z,51.38
2022-12-18T23:37:59.797Z,48.70
2022-12-18T23:40:29.831Z,45.75
2022-12-18T23:42:59.629Z,50.50
2022-12-18T23:45:29.686Z,46.47
2022-12-18T23:47:58.505Z,52.10
2022-12-18T23:50:29.585Z,49.40
2022-12-18T23:53:04.970Z,47.20
2022-12-18T23:55:39.426Z,49.72
2022-12-18T23:58:08.601Z,58.78
